Time;durP1;ratioP1;P1;durP2;ratioP2;P2;SDS_P1;SDS_P2;PMS_P1;PMS_P2;Temp;Humidity;BMP_temperature;BMP_pressure;BME280_temperature;BME280_humidity;BME280_pressure;Samples;Min_cycle;Max_cycle;Signal;HPM_P1;HPM_P2
2022/10/24 00:00:53;;;;;;;;;;;14.70;99.90;;;;;;5065747;28;19925;-80
2022/10/24 00:03:20;;;;;;;;;;;14.80;99.90;;;;;;5059542;28;20257;-80
2022/10/24 00:05:47;;;;;;;;;;;14.70;99.90;;;;;;5066027;28;19925;-78
2022/10/24 00:08:15;;;;;;;;;;;14.70;99.90;;;;;;5055233;28;19925;-81
2022/10/24 00:10:43;;;;;;;;;;;14.70;99.90;;;;;;5078050;28;20938;-78
2022/10/24 00:13:10;;;;;;;;;;;14.70;99.90;;;;;;5062792;28;19924;-83
2022/10/24 00:15:37;;;;;;;;;;;14.70;99.90;;;;;;5061420;28;19925;-79
2022/10/24 00:18:05;;;;;;;;;;;14.70;99.90;;;;;;5060587;28;19932;-78
2022/10/24 00:20:32;;;;;;;;;;;14.70;99.90;;;;;;5065937;28;20285;-78
2022/10/24 00:22:59;;;;;;;;;;;14.70;99.90;;;;;;5063546;28;19928;-80
2022/10/24 00:25:25;;;;;;;;;;;14.70;99.90;;;;;;5060061;28;19924;-78
2022/10/24 00:27:52;;;;;;;;;;;14.70;99.90;;;;;;5061928;28;20015;-78
2022/10/24 00:30:19;;;;;;;;;;;14.70;99.90;;;;;;5065016;28;19932;-78
2022/10/24 00:32:46;;;;;;;;;;;14.70;99.90;;;;;;5065068;28;19924;-78
2022/10/24 00:35:14;;;;;;;;;;;14.60;99.90;;;;;;5055835;28;19940;-81
2022/10/24 00:37:41;;;;;;;;;;;14.70;99.90;;;;;;5064083;28;20015;-82
2022/10/24 00:40:09;;;;;;;;;;;14.70;99.90;;;;;;5062667;28;19925;-78
2022/10/24 00:42:39;;;;;;;;;;;14.70;99.90;;;;;;5061051;28;19924;-78
2022/10/24 00:45:20;;;;;;;;;;;14.70;99.90;;;;;;5097794;27;19978;-78
2022/10/24 00:47:47;;;;;;;;;;;14.60;99.90;;;;;;5066818;28;19994;-82
2022/10/24 00:50:15;;;;;;;;;;;14.60;99.90;;;;;;5061589;28;19934;-80
2022/10/24 00:52:44;;;;;;;;;;;14.60;99.90;;;;;;5057237;28;19958;-78
2022/10/24 00:55:12;;;;;;;;;;;14.60;99.90;;;;;;5063658;28;19932;-81
2022/10/24 00:57:43;;;;;;;;;;;14.60;99.90;;;;;;5064743;28;20024;-78
2022/10/24 01:00:14;;;;;;;;;;;14.60;99.90;;;;;;5060946;28;20039;-79
2022/10/24 01:02:42;;;;;;;;;;;14.60;99.90;;;;;;5079693;28;20031;-78
2022/10/24 01:05:09;;;;;;;;;;;14.60;99.90;;;;;;5065456;28;20368;-77
2022/10/24 01:07:46;;;;;;;;;;;14.60;99.90;;;;;;5061252;28;19952;-78
2022/10/24 01:10:22;;;;;;;;;;;14.50;99.90;;;;;;5062699;28;19931;-78
2022/10/24 01:12:55;;;;;;;;;;;14.60;99.90;;;;;;5060493;28;20007;-77
2022/10/24 01:15:26;;;;;;;;;;;14.60;99.90;;;;;;5059371;28;20007;-78
2022/10/24 01:17:56;;;;;;;;;;;14.60;99.90;;;;;;5060082;28;19936;-78
2022/10/24 01:20:34;;;;;;;;;;;14.50;99.90;;;;;;5070669;28;19978;-81
2022/10/24 01:23:14;;;;;;;;;;;14.50;99.90;;;;;;5061942;28;19975;-78
2022/10/24 01:25:46;;;;;;;;;;;14.50;99.90;;;;;;5063016;28;20015;-78
2022/10/24 01:28:14;;;;;;;;;;;14.50;99.90;;;;;;5058713;28;20027;-81
2022/10/24 01:30:44;;;;;;;;;;;14.50;99.90;;;;;;5078218;28;19998;-79
2022/10/24 01:33:15;;;;;;;;;;;14.50;99.90;;;;;;5057239;28;19925;-82
2022/10/24 01:35:43;;;;;;;;;;;14.50;99.90;;;;;;5062247;28;19932;-78
2022/10/24 01:38:15;;;;;;;;;;;14.50;99.90;;;;;;5060230;28;20370;-82
2022/10/24 01:40:45;;;;;;;;;;;14.50;99.90;;;;;;5062520;28;19976;-78
2022/10/24 01:43:13;;;;;;;;;;;14.50;99.90;;;;;;5059830;28;19924;-78
2022/10/24 01:45:42;;;;;;;;;;;14.50;99.90;;;;;;5060332;28;19925;-78
2022/10/24 01:48:12;;;;;;;;;;;14.50;99.90;;;;;;5076994;28;19957;-80
2022/10/24 01:50:41;;;;;;;;;;;14.50;99.90;;;;;;5062967;28;20011;-79
2022/10/24 01:53:09;;;;;;;;;;;14.50;99.90;;;;;;5060114;28;20017;-78
2022/10/24 01:55:37;;;;;;;;;;;14.50;99.90;;;;;;5066473;28;20388;-78
2022/10/24 01:58:05;;;;;;;;;;;14.50;99.90;;;;;;5070410;28;19974;-78
2022/10/24 02:00:32;;;;;;;;;;;14.50;99.90;;;;;;5071166;28;19928;-79
2022/10/24 02:03:01;;;;;;;;;;;14.50;99.90;;;;;;5059757;28;19964;-82
2022/10/24 02:05:32;;;;;;;;;;;14.50;99.90;;;;;;5069360;28;19931;-78
2022/10/24 02:08:02;;;;;;;;;;;14.40;99.90;;;;;;5066479;28;19924;-82
2022/10/24 02:10:30;;;;;;;;;;;14.50;99.90;;;;;;5065526;28;20023;-78
2022/10/24 02:12:59;;;;;;;;;;;14.40;99.90;;;;;;5059378;28;20019;-80
2022/10/24 02:15:29;;;;;;;;;;;14.40;99.90;;;;;;5062889;28;20463;-77
2022/10/24 02:17:56;;;;;;;;;;;14.50;99.90;;;;;;5066324;28;20011;-78
2022/10/24 02:20:27;;;;;;;;;;;14.40;99.90;;;;;;5062634;28;19929;-78
2022/10/24 02:22:58;;;;;;;;;;;14.40;99.90;;;;;;5062842;28;19924;-78
2022/10/24 02:25:27;;;;;;;;;;;14.40;99.90;;;;;;5079863;28;20088;-79
2022/10/24 02:27:57;;;;;;;;;;;14.40;99.90;;;;;;5067072;28;20023;-78
2022/10/24 02:30:25;;;;;;;;;;;14.40;99.90;;;;;;5059471;28;20403;-81
2022/10/24 02:32:53;;;;;;;;;;;14.40;99.90;;;;;;5063434;28;19974;-81
2022/10/24 02:35:24;;;;;;;;;;;14.40;99.90;;;;;;5065458;28;20364;-77
2022/10/24 02:37:52;;;;;;;;;;;14.40;99.90;;;;;;5064355;28;19955;-78
2022/10/24 02:40:21;;;;;;;;;;;14.40;99.90;;;;;;5067049;28;19925;-77
2022/10/24 02:42:51;;;;;;;;;;;14.40;99.90;;;;;;5065894;28;19939;-77
2022/10/24 02:45:19;;;;;;;;;;;14.40;99.90;;;;;;5062742;28;19939;-78
2022/10/24 02:47:48;;;;;;;;;;;14.40;99.90;;;;;;5062912;28;19935;-82
2022/10/24 02:50:15;;;;;;;;;;;14.40;99.90;;;;;;5064546;28;19959;-79
2022/10/24 02:52:43;;;;;;;;;;;14.40;99.90;;;;;;5065248;28;20035;-80
2022/10/24 02:55:11;;;;;;;;;;;14.40;99.90;;;;;;5064993;28;19978;-78
2022/10/24 02:57:39;;;;;;;;;;;14.40;99.90;;;;;;5067730;28;19958;-78
2022/10/24 03:00:07;;;;;;;;;;;14.30;99.90;;;;;;5059998;28;19928;-79
2022/10/24 03:02:35;;;;;;;;;;;14.40;99.90;;;;;;5062108;28;20011;-78
2022/10/24 03:05:01;;;;;;;;;;;14.30;99.90;;;;;;5063246;28;19931;-77
2022/10/24 03:07:28;;;;;;;;;;;14.40;99.90;;;;;;5065450;28;19950;-78
2022/10/24 03:09:55;;;;;;;;;;;14.40;99.90;;;;;;5066366;28;19924;-79
2022/10/24 03:12:23;;;;;;;;;;;14.40;99.90;;;;;;5062761;28;19924;-77
2022/10/24 03:14:51;;;;;;;;;;;14.30;99.90;;;;;;5062618;28;20332;-78
2022/10/24 03:17:18;;;;;;;;;;;14.30;99.90;;;;;;5061065;28;19925;-78
2022/10/24 03:19:45;;;;;;;;;;;14.30;99.90;;;;;;5094791;27;20351;-78
2022/10/24 03:22:11;;;;;;;;;;;14.30;99.90;;;;;;5057319;28;19933;-75
2022/10/24 03:24:38;;;;;;;;;;;14.30;99.90;;;;;;5066960;28;20011;-77
2022/10/24 03:27:05;;;;;;;;;;;14.30;99.90;;;;;;5070028;28;19933;-81
2022/10/24 03:29:32;;;;;;;;;;;14.30;99.90;;;;;;5071188;28;20382;-78
2022/10/24 03:32:00;;;;;;;;;;;14.30;99.90;;;;;;5056832;28;20286;-83
2022/10/24 03:34:27;;;;;;;;;;;14.30;99.90;;;;;;5061509;28;19955;-78
2022/10/24 03:36:54;;;;;;;;;;;14.30;99.90;;;;;;5058491;28;20403;-78
2022/10/24 03:39:20;;;;;;;;;;;14.30;99.90;;;;;;5060438;28;20412;-79
2022/10/24 03:41:47;;;;;;;;;;;14.30;99.90;;;;;;5059162;28;20007;-78
2022/10/24 03:44:14;;;;;;;;;;;14.30;99.90;;;;;;5054307;28;19971;-75
2022/10/24 03:46:41;;;;;;;;;;;14.30;99.90;;;;;;5055347;28;20454;-75
2022/10/24 03:49:09;;;;;;;;;;;14.30;99.90;;;;;;5045724;28;20149;-75
2022/10/24 03:51:36;;;;;;;;;;;14.30;99.90;;;;;;5058423;28;19932;-75
2022/10/24 03:54:03;;;;;;;;;;;14.30;99.90;;;;;;5060139;28;19932;-78
2022/10/24 03:56:29;;;;;;;;;;;14.30;99.90;;;;;;5048252;28;19925;-78
2022/10/24 03:58:56;;;;;;;;;;;14.30;99.90;;;;;;5052733;28;19939;-77
2022/10/24 04:01:23;;;;;;;;;;;14.30;99.90;;;;;;5045865;28;22747;-79
2022/10/24 04:03:50;;;;;;;;;;;14.30;99.90;;;;;;5058617;28;19995;-78
2022/10/24 04:06:18;;;;;;;;;;;14.30;99.90;;;;;;5065609;28;20382;-77
2022/10/24 04:08:45;;;;;;;;;;;14.30;99.90;;;;;;5045418;28;19931;-85
2022/10/24 04:11:12;;;;;;;;;;;14.30;99.90;;;;;;5044894;28;19932;-80
2022/10/24 04:13:39;;;;;;;;;;;14.30;99.90;;;;;;5065958;28;19933;-84
2022/10/24 04:16:09;;;;;;;;;;;14.30;99.90;;;;;;5077929;28;19933;-84
2022/10/24 04:18:36;;;;;;;;;;;14.20;99.90;;;;;;5053186;28;20353;-82
2022/10/24 04:21:06;;;;;;;;;;;14.30;99.90;;;;;;5062433;28;19996;-84
2022/10/24 04:23:39;;;;;;;;;;;14.20;99.90;;;;;;5052954;28;20366;-82
2022/10/24 04:26:06;;;;;;;;;;;14.30;99.90;;;;;;5064006;28;20960;-79
2022/10/24 04:28:33;;;;;;;;;;;14.20;99.90;;;;;;5061599;28;19976;-77
2022/10/24 04:31:00;;;;;;;;;;;14.20;99.90;;;;;;5061323;28;19980;-86
2022/10/24 04:33:27;;;;;;;;;;;14.20;99.90;;;;;;5062115;28;19925;-81
2022/10/24 04:35:54;;;;;;;;;;;14.10;99.90;;;;;;5080867;28;20906;-81
2022/10/24 04:38:20;;;;;;;;;;;14.20;99.90;;;;;;5049933;28;19925;-81
2022/10/24 04:40:49;;;;;;;;;;;14.20;99.90;;;;;;5072722;28;19967;-78
2022/10/24 04:43:16;;;;;;;;;;;14.20;99.90;;;;;;5075031;28;19934;-79
2022/10/24 04:45:43;;;;;;;;;;;14.20;99.90;;;;;;5072832;28;19931;-82
2022/10/24 04:48:10;;;;;;;;;;;14.20;99.90;;;;;;5058576;28;19929;-79
2022/10/24 04:50:37;;;;;;;;;;;14.20;99.90;;;;;;5062289;28;19925;-86
2022/10/24 04:53:05;;;;;;;;;;;14.20;99.90;;;;;;5058905;28;20026;-83
2022/10/24 04:55:32;;;;;;;;;;;14.20;99.90;;;;;;5059526;28;20722;-79
2022/10/24 04:58:00;;;;;;;;;;;14.20;99.90;;;;;;5052934;28;20030;-80
2022/10/24 05:00:27;;;;;;;;;;;14.20;99.90;;;;;;5068720;28;20325;-80
2022/10/24 05:02:54;;;;;;;;;;;14.20;99.90;;;;;;5056433;28;19928;-82
2022/10/24 05:05:21;;;;;;;;;;;14.20;99.90;;;;;;5052225;28;20019;-88
2022/10/24 05:07:47;;;;;;;;;;;14.20;99.90;;;;;;5057796;28;19924;-82
2022/10/24 05:10:15;;;;;;;;;;;14.20;99.90;;;;;;5057249;28;19939;-83
2022/10/24 05:12:42;;;;;;;;;;;14.20;99.90;;;;;;5061352;28;19936;-82
2022/10/24 05:15:13;;;;;;;;;;;14.20;99.90;;;;;;5058861;28;19959;-80
2022/10/24 05:17:39;;;;;;;;;;;14.20;99.90;;;;;;5067591;28;20315;-79
2022/10/24 05:20:07;;;;;;;;;;;14.20;99.90;;;;;;5060230;28;19951;-82
2022/10/24 05:22:34;;;;;;;;;;;14.20;99.90;;;;;;5094801;28;19966;-79
2022/10/24 05:25:00;;;;;;;;;;;14.20;99.90;;;;;;5059947;28;19925;-77
2022/10/24 05:27:27;;;;;;;;;;;14.20;99.90;;;;;;5073761;28;19925;-78
2022/10/24 05:29:54;;;;;;;;;;;14.20;99.90;;;;;;5076618;28;19935;-78
2022/10/24 05:32:24;;;;;;;;;;;14.20;99.90;;;;;;5073360;28;19946;-77
2022/10/24 05:34:53;;;;;;;;;;;14.10;99.90;;;;;;5059723;28;19924;-77
2022/10/24 05:37:20;;;;;;;;;;;14.20;99.90;;;;;;5061935;28;19932;-78
2022/10/24 05:39:47;;;;;;;;;;;14.20;99.90;;;;;;5053718;28;19925;-76
2022/10/24 05:42:13;;;;;;;;;;;14.20;99.90;;;;;;5055980;28;19931;-77
2022/10/24 05:44:40;;;;;;;;;;;14.10;99.90;;;;;;5057940;28;19978;-81
2022/10/24 05:47:07;;;;;;;;;;;14.20;99.90;;;;;;5048523;28;19925;-76
2022/10/24 05:49:35;;;;;;;;;;;14.20;99.90;;;;;;5049910;28;19982;-75
2022/10/24 05:52:02;;;;;;;;;;;14.10;99.90;;;;;;5059077;28;19931;-77
2022/10/24 05:54:29;;;;;;;;;;;14.20;99.90;;;;;;5060958;28;20036;-76
2022/10/24 05:56:55;;;;;;;;;;;14.10;99.90;;;;;;5069855;28;20315;-76
2022/10/24 05:59:22;;;;;;;;;;;14.10;99.90;;;;;;5071131;28;20453;-76
2022/10/24 06:01:49;;;;;;;;;;;14.10;99.90;;;;;;5063554;28;19978;-76
2022/10/24 06:04:16;;;;;;;;;;;14.10;99.90;;;;;;5061463;28;19932;-77
2022/10/24 06:06:45;;;;;;;;;;;14.10;99.90;;;;;;5063472;28;19924;-75
2022/10/24 06:09:12;;;;;;;;;;;14.10;99.90;;;;;;5061679;28;20386;-76
2022/10/24 06:11:39;;;;;;;;;;;14.10;99.90;;;;;;5062824;28;20018;-77
2022/10/24 06:14:06;;;;;;;;;;;14.10;99.90;;;;;;5072348;28;19932;-77
2022/10/24 06:16:33;;;;;;;;;;;14.10;99.90;;;;;;5068279;28;19929;-76
2022/10/24 06:18:59;;;;;;;;;;;14.20;99.90;;;;;;5061096;28;19929;-75
2022/10/24 06:21:26;;;;;;;;;;;14.10;99.90;;;;;;5062961;28;19932;-76
2022/10/24 06:23:54;;;;;;;;;;;14.10;99.90;;;;;;5066851;28;20019;-77
2022/10/24 06:26:21;;;;;;;;;;;14.10;99.90;;;;;;5065415;28;19964;-77
2022/10/24 06:28:48;;;;;;;;;;;14.10;99.90;;;;;;5059845;28;19968;-76
2022/10/24 06:31:15;;;;;;;;;;;14.10;99.90;;;;;;5064556;28;20437;-77
2022/10/24 06:33:42;;;;;;;;;;;14.10;99.90;;;;;;5063799;28;19928;-75
2022/10/24 06:36:09;;;;;;;;;;;14.10;99.90;;;;;;5061391;28;19931;-76
2022/10/24 06:38:36;;;;;;;;;;;14.10;99.90;;;;;;5064359;28;19932;-77
2022/10/24 06:41:07;;;;;;;;;;;14.10;99.90;;;;;;5066853;28;19935;-76
2022/10/24 06:43:33;;;;;;;;;;;14.10;99.90;;;;;;5066408;28;19939;-77
2022/10/24 06:46:04;;;;;;;;;;;14.10;99.90;;;;;;5065422;28;20302;-76
2022/10/24 06:48:31;;;;;;;;;;;14.10;99.90;;;;;;5065894;28;19925;-76
2022/10/24 06:50:58;;;;;;;;;;;14.10;99.90;;;;;;5069627;28;20302;-76
2022/10/24 06:53:25;;;;;;;;;;;14.00;99.90;;;;;;5066884;28;19924;-75
2022/10/24 06:55:51;;;;;;;;;;;14.10;99.90;;;;;;5063160;28;19999;-76
2022/10/24 06:58:20;;;;;;;;;;;14.00;99.90;;;;;;5068550;28;19984;-76
2022/10/24 07:00:46;;;;;;;;;;;14.00;99.90;;;;;;5066855;28;19978;-76
2022/10/24 07:03:14;;;;;;;;;;;14.10;99.90;;;;;;5065187;28;19933;-76
2022/10/24 07:05:41;;;;;;;;;;;14.00;99.90;;;;;;5065553;28;19978;-76
2022/10/24 07:08:08;;;;;;;;;;;14.00;99.90;;;;;;5068831;28;20271;-76
2022/10/24 07:10:34;;;;;;;;;;;14.00;99.90;;;;;;5061131;28;20501;-76
2022/10/24 07:13:01;;;;;;;;;;;14.00;99.90;;;;;;5059074;28;20354;-76
2022/10/24 07:15:29;;;;;;;;;;;14.00;99.90;;;;;;5063881;28;19925;-76
2022/10/24 07:17:56;;;;;;;;;;;14.00;99.90;;;;;;5069562;28;19982;-76
2022/10/24 07:20:23;;;;;;;;;;;14.10;99.90;;;;;;5064115;28;19933;-75
2022/10/24 07:22:50;;;;;;;;;;;14.00;99.90;;;;;;5065992;28;20395;-76
2022/10/24 07:25:18;;;;;;;;;;;14.00;99.90;;;;;;5068936;28;19928;-76
2022/10/24 07:27:44;;;;;;;;;;;14.00;99.90;;;;;;5071150;28;20444;-76
2022/10/24 07:30:15;;;;;;;;;;;14.00;99.90;;;;;;5066481;28;20394;-75
2022/10/24 07:32:43;;;;;;;;;;;14.00;99.90;;;;;;5071937;28;20428;-76
2022/10/24 07:35:11;;;;;;;;;;;14.00;99.90;;;;;;5066467;28;19932;-77
2022/10/24 07:37:38;;;;;;;;;;;14.00;99.90;;;;;;5066379;28;19931;-75
2022/10/24 07:40:05;;;;;;;;;;;14.00;99.90;;;;;;5062827;28;20310;-76
2022/10/24 07:42:32;;;;;;;;;;;14.00;99.90;;;;;;5076867;28;19956;-76
2022/10/24 07:44:58;;;;;;;;;;;14.00;99.90;;;;;;5066555;28;19924;-76
2022/10/24 07:47:25;;;;;;;;;;;14.00;99.90;;;;;;5056096;28;19929;-76
2022/10/24 07:49:53;;;;;;;;;;;14.00;99.90;;;;;;5091170;27;20471;-75
2022/10/24 07:52:20;;;;;;;;;;;14.00;99.90;;;;;;5096880;28;21943;-76
2022/10/24 07:54:47;;;;;;;;;;;14.00;99.90;;;;;;5069344;28;20279;-76
2022/10/24 07:57:14;;;;;;;;;;;14.00;99.90;;;;;;5062194;28;20003;-75
2022/10/24 07:59:40;;;;;;;;;;;14.00;99.90;;;;;;5066362;28;19928;-76
2022/10/24 08:02:09;;;;;;;;;;;14.00;99.90;;;;;;5064045;28;19929;-77
2022/10/24 08:04:36;;;;;;;;;;;14.00;99.90;;;;;;5065474;28;20326;-76
2022/10/24 08:07:06;;;;;;;;;;;14.00;99.90;;;;;;5062259;28;19938;-76
2022/10/24 08:09:37;;;;;;;;;;;14.00;99.90;;;;;;5066280;28;20383;-76
2022/10/24 08:12:03;;;;;;;;;;;14.00;99.90;;;;;;5065020;28;20035;-76
2022/10/24 08:14:30;;;;;;;;;;;14.00;99.90;;;;;;5063733;28;19930;-74
2022/10/24 08:16:57;;;;;;;;;;;14.00;99.90;;;;;;5066670;28;19928;-76
2022/10/24 08:19:24;;;;;;;;;;;14.00;99.90;;;;;;5060562;28;20452;-76
2022/10/24 08:21:51;;;;;;;;;;;14.00;99.90;;;;;;5062212;28;19971;-76
2022/10/24 08:24:19;;;;;;;;;;;14.00;99.90;;;;;;5064423;28;20011;-76
2022/10/24 08:26:48;;;;;;;;;;;14.00;99.90;;;;;;5062673;28;19925;-79
2022/10/24 08:29:20;;;;;;;;;;;14.00;99.90;;;;;;5065014;28;19925;-80
2022/10/24 08:31:49;;;;;;;;;;;14.00;99.90;;;;;;5066887;28;19932;-79
2022/10/24 08:34:16;;;;;;;;;;;14.00;99.90;;;;;;5057648;28;19928;-79
2022/10/24 08:36:43;;;;;;;;;;;14.00;99.90;;;;;;5063250;28;19925;-81
2022/10/24 08:39:10;;;;;;;;;;;14.00;99.90;;;;;;5064615;28;19931;-78
2022/10/24 08:41:40;;;;;;;;;;;14.00;99.90;;;;;;5065210;28;19935;-82
2022/10/24 08:44:14;;;;;;;;;;;14.00;99.90;;;;;;5062613;28;19930;-78
2022/10/24 08:46:49;;;;;;;;;;;14.00;99.90;;;;;;5062292;28;19925;-78
2022/10/24 08:49:23;;;;;;;;;;;14.00;99.90;;;;;;5065240;28;19925;-79
2022/10/24 08:51:52;;;;;;;;;;;14.00;99.90;;;;;;5073704;28;20019;-78
2022/10/24 08:54:22;;;;;;;;;;;14.00;99.90;;;;;;5081578;28;19971;-80
2022/10/24 08:56:51;;;;;;;;;;;14.00;99.90;;;;;;5074234;28;19932;-78
2022/10/24 08:59:18;;;;;;;;;;;14.00;99.90;;;;;;5061484;28;19950;-78
2022/10/24 09:01:48;;;;;;;;;;;14.00;99.90;;;;;;5079173;28;19946;-78
2022/10/24 09:04:17;;;;;;;;;;;14.00;99.90;;;;;;5064361;28;19947;-78
2022/10/24 09:06:45;;;;;;;;;;;14.00;99.90;;;;;;5062800;28;19928;-80
2022/10/24 09:09:16;;;;;;;;;;;14.00;99.90;;;;;;5062235;28;19924;-79
2022/10/24 09:11:45;;;;;;;;;;;14.00;99.90;;;;;;5063805;28;19924;-79
2022/10/24 09:14:14;;;;;;;;;;;14.00;99.90;;;;;;5066052;28;19924;-78
2022/10/24 09:16:42;;;;;;;;;;;14.00;99.90;;;;;;5066185;28;19925;-78
2022/10/24 09:19:12;;;;;;;;;;;14.00;99.90;;;;;;5064542;28;19932;-82
2022/10/24 09:21:40;;;;;;;;;;;14.00;99.90;;;;;;5065216;28;19970;-78
2022/10/24 09:24:07;;;;;;;;;;;14.00;99.90;;;;;;5068635;28;20002;-79
2022/10/24 09:26:39;;;;;;;;;;;14.00;99.90;;;;;;5062099;28;19929;-78
2022/10/24 09:29:06;;;;;;;;;;;14.00;99.90;;;;;;5064819;28;19930;-78
2022/10/24 09:31:34;;;;;;;;;;;14.00;99.90;;;;;;5060731;28;20333;-80
2022/10/24 09:34:03;;;;;;;;;;;14.00;99.90;;;;;;5063449;28;19932;-78
2022/10/24 09:36:32;;;;;;;;;;;14.00;99.90;;;;;;5064345;28;19924;-83
2022/10/24 09:39:21;;;;;;;;;;;14.10;99.90;;;;;;5078258;28;20684;-80
2022/10/24 09:41:48;;;;;;;;;;;14.10;99.90;;;;;;5064994;28;19970;-78
2022/10/24 09:44:28;;;;;;;;;;;14.00;99.90;;;;;;5055835;28;19941;-80
2022/10/24 09:46:56;;;;;;;;;;;14.10;99.90;;;;;;5060567;28;20386;-81
2022/10/24 09:49:26;;;;;;;;;;;14.10;99.90;;;;;;5063504;28;19939;-82
2022/10/24 09:52:00;;;;;;;;;;;14.10;99.90;;;;;;5061814;28;20805;-80
2022/10/24 09:54:28;;;;;;;;;;;14.10;99.90;;;;;;5058877;28;20039;-80
2022/10/24 09:56:57;;;;;;;;;;;14.00;99.90;;;;;;5069544;28;20312;-78
2022/10/24 09:59:31;;;;;;;;;;;14.10;99.90;;;;;;5063759;28;20432;-78
2022/10/24 10:02:17;;;;;;;;;;;14.10;99.90;;;;;;5058511;28;20713;-79
2022/10/24 10:04:45;;;;;;;;;;;14.10;99.90;;;;;;5061562;28;20390;-82
2022/10/24 10:07:14;;;;;;;;;;;14.10;99.90;;;;;;5065041;28;19971;-79
2022/10/24 10:09:47;;;;;;;;;;;14.10;99.90;;;;;;5056777;28;19928;-78
2022/10/24 10:12:25;;;;;;;;;;;14.10;99.90;;;;;;5064598;28;19978;-79
2022/10/24 10:14:52;;;;;;;;;;;14.10;99.90;;;;;;5063445;28;19955;-82
2022/10/24 10:17:22;;;;;;;;;;;14.10;99.90;;;;;;5063141;28;19924;-78
2022/10/24 10:19:50;;;;;;;;;;;14.10;99.90;;;;;;5057173;28;19929;-76
2022/10/24 10:22:25;;;;;;;;;;;14.10;99.90;;;;;;5069438;28;19928;-76
2022/10/24 10:24:52;;;;;;;;;;;14.10;99.90;;;;;;5071270;28;19971;-76
2022/10/24 10:27:24;;;;;;;;;;;14.10;99.90;;;;;;5066169;28;19924;-76
2022/10/24 10:30:07;;;;;;;;;;;14.10;99.90;;;;;;5076844;28;19931;-76
2022/10/24 10:32:38;;;;;;;;;;;14.10;99.90;;;;;;5077283;28;19950;-76
2022/10/24 10:35:10;;;;;;;;;;;14.10;99.90;;;;;;5071176;28;20707;-76
2022/10/24 10:37:40;;;;;;;;;;;14.10;99.90;;;;;;5055483;28;20367;-76
2022/10/24 10:40:15;;;;;;;;;;;14.10;99.90;;;;;;5057270;28;20512;-77
2022/10/24 10:42:47;;;;;;;;;;;14.10;99.90;;;;;;5063495;28;19968;-76
2022/10/24 10:45:16;;;;;;;;;;;14.10;99.90;;;;;;5063181;28;20456;-76
2022/10/24 10:47:48;;;;;;;;;;;14.10;99.90;;;;;;5065732;28;19932;-75
2022/10/24 10:50:22;;;;;;;;;;;14.10;99.90;;;;;;5065127;28;19970;-75
2022/10/24 10:52:49;;;;;;;;;;;14.10;99.90;;;;;;5055714;28;19994;-75
2022/10/24 10:55:20;;;;;;;;;;;14.10;99.90;;;;;;5061081;28;19924;-76
2022/10/24 10:57:50;;;;;;;;;;;14.10;99.90;;;;;;5064252;28;20116;-78
2022/10/24 11:00:19;;;;;;;;;;;14.10;99.90;;;;;;5069262;28;20371;-86
2022/10/24 11:03:00;;;;;;;;;;;14.10;99.90;;;;;;5088013;28;20028;-79
2022/10/24 11:05:33;;;;;;;;;;;14.10;99.90;;;;;;5083491;28;19951;-79
2022/10/24 11:08:04;;;;;;;;;;;14.20;99.90;;;;;;5073440;28;19960;-77
2022/10/24 11:10:33;;;;;;;;;;;14.10;99.90;;;;;;5072576;28;20085;-78
2022/10/24 11:13:03;;;;;;;;;;;14.10;99.90;;;;;;5071342;28;19978;-77
2022/10/24 11:15:31;;;;;;;;;;;14.10;99.90;;;;;;5063368;28;19995;-75
2022/10/24 11:18:04;;;;;;;;;;;14.10;99.90;;;;;;5074569;28;19929;-77
2022/10/24 11:20:32;;;;;;;;;;;14.10;99.90;;;;;;5062464;28;20202;-77
2022/10/24 11:23:01;;;;;;;;;;;14.10;99.90;;;;;;5063607;28;19955;-76
2022/10/24 11:25:30;;;;;;;;;;;14.10;99.90;;;;;;5079669;28;19959;-78
2022/10/24 11:28:01;;;;;;;;;;;14.10;99.90;;;;;;5071226;28;19928;-80
2022/10/24 11:30:35;;;;;;;;;;;14.10;99.90;;;;;;5081550;28;20486;-76
2022/10/24 11:33:07;;;;;;;;;;;14.10;99.90;;;;;;5066813;28;19986;-76
2022/10/24 11:35:36;;;;;;;;;;;14.10;99.90;;;;;;5066221;28;20204;-77
2022/10/24 11:38:07;;;;;;;;;;;14.10;99.90;;;;;;5069150;28;19955;-76
2022/10/24 11:40:35;;;;;;;;;;;14.10;99.90;;;;;;5068694;28;20313;-77
2022/10/24 11:43:07;;;;;;;;;;;14.10;99.90;;;;;;5068619;28;20019;-76
2022/10/24 11:45:38;;;;;;;;;;;14.10;99.90;;;;;;5095518;27;19934;-77
2022/10/24 11:48:13;;;;;;;;;;;14.10;99.90;;;;;;5071402;28;19936;-77
2022/10/24 11:50:46;;;;;;;;;;;14.10;99.90;;;;;;5067649;28;19968;-75
2022/10/24 11:53:16;;;;;;;;;;;14.10;99.90;;;;;;5070147;28;19931;-76
2022/10/24 11:55:46;;;;;;;;;;;14.10;99.90;;;;;;5066055;28;19936;-76
2022/10/24 11:58:14;;;;;;;;;;;14.10;99.90;;;;;;5069231;28;19938;-77
2022/10/24 12:00:53;;;;;;;;;;;14.20;99.90;;;;;;5067896;28;19924;-77
2022/10/24 12:03:44;;;;;;;;;;;14.20;99.90;;;;;;5069044;28;19931;-76
2022/10/24 12:06:22;;;;;;;;;;;14.20;99.90;;;;;;5061086;28;19932;-77
2022/10/24 12:09:05;;;;;;;;;;;14.20;99.90;;;;;;5078041;28;20523;-78
2022/10/24 12:11:41;;;;;;;;;;;14.10;99.90;;;;;;5052482;28;20468;-77
2022/10/24 12:14:23;;;;;;;;;;;14.20;99.90;;;;;;5064803;28;20542;-77
2022/10/24 12:16:57;;;;;;;;;;;14.20;99.90;;;;;;5059391;28;20019;-77
2022/10/24 12:19:28;;;;;;;;;;;14.10;99.90;;;;;;5059297;28;19929;-76
2022/10/24 12:21:58;;;;;;;;;;;14.10;99.90;;;;;;5058549;28;19924;-77
2022/10/24 12:24:29;;;;;;;;;;;14.20;99.90;;;;;;5059140;28;19940;-76
2022/10/24 12:26:58;;;;;;;;;;;14.20;99.90;;;;;;5069514;28;19924;-77
2022/10/24 12:29:26;;;;;;;;;;;14.10;99.90;;;;;;5063856;28;19985;-77
2022/10/24 12:31:54;;;;;;;;;;;14.10;99.90;;;;;;5073999;28;19936;-76
2022/10/24 12:34:42;;;;;;;;;;;14.10;99.90;;;;;;5063567;28;21213;-76
2022/10/24 12:37:10;;;;;;;;;;;14.10;99.90;;;;;;5096903;28;20019;-77
2022/10/24 12:39:38;;;;;;;;;;;14.20;99.90;;;;;;5066858;28;19932;-76
2022/10/24 12:42:12;;;;;;;;;;;14.20;99.90;;;;;;5061163;28;19983;-76
2022/10/24 12:44:46;;;;;;;;;;;14.20;99.90;;;;;;5065697;28;19928;-76
2022/10/24 12:47:31;;;;;;;;;;;14.20;99.90;;;;;;5064121;28;19963;-77
2022/10/24 12:50:20;;;;;;;;;;;14.20;99.90;;;;;;5072075;28;20395;-78
2022/10/24 12:53:02;;;;;;;;;;;14.20;99.90;;;;;;5062131;28;19924;-76
2022/10/24 12:55:30;;;;;;;;;;;14.20;99.90;;;;;;5071097;28;19963;-77
2022/10/24 12:57:57;;;;;;;;;;;14.20;99.90;;;;;;5064784;28;19925;-77
2022/10/24 13:00:26;;;;;;;;;;;14.20;99.90;;;;;;5069698;28;19925;-76
2022/10/24 13:03:00;;;;;;;;;;;14.20;99.90;;;;;;5068707;28;19933;-77
2022/10/24 13:05:33;;;;;;;;;;;14.20;99.90;;;;;;5070199;28;19925;-77
2022/10/24 13:08:07;;;;;;;;;;;14.20;99.90;;;;;;5096189;28;19986;-77
2022/10/24 13:10:44;;;;;;;;;;;14.20;99.90;;;;;;5103578;28;19928;-76
2022/10/24 13:13:29;;;;;;;;;;;14.20;99.90;;;;;;5069699;28;19975;-76
2022/10/24 13:15:59;;;;;;;;;;;14.20;99.90;;;;;;5070662;28;20360;-76
2022/10/24 13:18:31;;;;;;;;;;;14.20;99.90;;;;;;5065899;28;19924;-77
2022/10/24 13:21:08;;;;;;;;;;;14.20;99.90;;;;;;5062585;28;19970;-76
2022/10/24 13:23:36;;;;;;;;;;;14.20;99.90;;;;;;5051571;28;19991;-76
2022/10/24 13:26:03;;;;;;;;;;;14.20;99.90;;;;;;5068503;28;19943;-74
2022/10/24 13:28:42;;;;;;;;;;;14.20;99.90;;;;;;5067727;28;19933;-77
2022/10/24 13:31:28;;;;;;;;;;;14.30;99.90;;;;;;5067181;28;19932;-78
2022/10/24 13:34:12;;;;;;;;;;;14.30;99.90;;;;;;5066115;28;19928;-92
2022/10/24 13:36:39;;;;;;;;;;;14.30;99.90;;;;;;5067771;28;19978;-77
2022/10/24 13:39:11;;;;;;;;;;;14.30;99.90;;;;;;5063751;28;19925;-78
2022/10/24 13:41:39;;;;;;;;;;;14.30;99.90;;;;;;5065958;28;19924;-76
2022/10/24 13:44:09;;;;;;;;;;;14.30;99.90;;;;;;5064347;28;19932;-76
2022/10/24 13:46:40;;;;;;;;;;;14.30;99.90;;;;;;5068721;28;20461;-78
2022/10/24 13:49:07;;;;;;;;;;;14.30;99.90;;;;;;5066228;28;19959;-77
2022/10/24 13:51:36;;;;;;;;;;;14.30;99.90;;;;;;5073496;28;20082;-78
2022/10/24 13:54:07;;;;;;;;;;;14.30;99.90;;;;;;5071618;28;19932;-78
2022/10/24 13:56:37;;;;;;;;;;;14.30;99.90;;;;;;5069669;28;19935;-79
2022/10/24 13:59:06;;;;;;;;;;;14.30;99.90;;;;;;5071539;28;19925;-78
2022/10/24 14:01:35;;;;;;;;;;;14.30;99.90;;;;;;5093500;28;19955;-76
2022/10/24 14:04:02;;;;;;;;;;;14.30;99.90;;;;;;5048683;28;19929;-84
2022/10/24 14:06:33;;;;;;;;;;;14.30;99.90;;;;;;5063505;28;21277;-76
2022/10/24 14:09:01;;;;;;;;;;;14.30;99.90;;;;;;5063051;28;20037;-75
2022/10/24 14:11:28;;;;;;;;;;;14.30;99.90;;;;;;5062500;28;19990;-78
2022/10/24 14:13:58;;;;;;;;;;;14.40;99.90;;;;;;5072347;28;20416;-76
2022/10/24 14:16:25;;;;;;;;;;;14.40;99.90;;;;;;5067436;28;20409;-76
2022/10/24 14:18:52;;;;;;;;;;;14.30;99.90;;;;;;5062314;28;19990;-77
2022/10/24 14:21:20;;;;;;;;;;;14.40;99.90;;;;;;5067535;28;19938;-78
2022/10/24 14:23:54;;;;;;;;;;;14.30;99.90;;;;;;5070345;28;20364;-77
2022/10/24 14:26:21;;;;;;;;;;;14.30;99.90;;;;;;5066610;28;19928;-77
2022/10/24 14:28:50;;;;;;;;;;;14.40;99.90;;;;;;5072392;28;19933;-77